Svyataya Anna — UUCV — position and weather

sailwx.info

Track history (hours):
 
Tides and Currents Weather Stations Pressure Air Temp Water Temp Dewpoint Dewpoint Depression Visibility Wind Speed Wind Dir Waves Ship Positions

Svyataya Anna

Last reported at 2016-May-31 15:22 UTC. Time now 2016-May-31 16:04 UTC.
Position N 44°16' E 034°46'.

Length 93 m; draft 3.2 m.

Type: Cargo ship. MMSI: 272068800.

Date/timePositionNaut miles runAvg speedWind from/ knotsBaromVisibWave heightAir tempDewpointWater temp
2016-May-31 15:22N 44°16' E 034°46'3 4.3
2016-May-31 14:33N 44°15' E 034°41'11 5.0
2016-May-31 12:23N 44°16' E 034°26'4 5.1
2016-May-31 11:33N 44°16' E 034°20'6 5.0
2016-May-31 10:26N 44°16' E 034°12'6 4.7
2016-May-31 09:11N 44°16' E 034°04'37 4.7
2016-May-31 01:24N 44°26' E 033°15'4 5.1
2016-May-31 00:33N 44°30' E 033°11'6 4.8
2016-May-30 23:22N 44°34' E 033°05'9 4.8
2016-May-30 21:33N 44°40' E 032°57'6 4.9
2016-May-30 20:25N 44°45' E 032°52'4 5.0
2016-May-30 19:33N 44°48' E 032°48'5 4.9
2016-May-30 18:33N 44°51' E 032°43'5 5.0
2016-May-30 17:33N 44°55' E 032°38'5 4.9
2016-May-30 16:33N 44°58' E 032°34'5 4.9
2016-May-30 15:33N 45°02' E 032°29'80 5.0
2016-May-29 23:32N 46°08' E 031°24'6 5.2
2016-May-29 22:21N 46°14' E 031°20'4 5.2
2016-May-29 21:30N 46°18' E 031°17'5 5.1
2016-May-29 20:32N 46°22' E 031°13'5 5.1
2016-May-29 19:33N 46°26' E 031°09'5 5.0
2016-May-29 18:33N 46°30' E 031°05'5 4.7
2016-May-29 17:33N 46°34' E 031°01'3 3.1
2016-May-29 16:31N 46°37' E 031°02'0 0.0
2016-May-29 15:33N 46°37' E 031°02'0 0.0
2016-May-29 14:30N 46°37' E 031°02'0 0.0
2016-May-29 13:32N 46°37' E 031°02'0 0.0
2016-May-29 12:33N 46°37' E 031°02'0 0.0
2016-May-29 11:32N 46°37' E 031°02'0 0.0
2016-May-29 10:33N 46°37' E 031°02'0 0.0
2016-May-29 09:33N 46°37' E 031°02'0 0.0
2016-May-29 08:33N 46°37' E 031°02'0 0.0
2016-May-29 07:32N 46°37' E 031°02'0 0.0
2016-May-29 05:33N 46°37' E 031°02'0 0.0
2016-May-29 03:34N 46°37' E 031°02'0 0.0
2016-May-29 02:33N 46°37' E 031°02'0 0.0
2016-May-29 01:33N 46°37' E 031°02'0 0.0
2016-May-29 00:33N 46°37' E 031°02'0 0.0
2016-May-28 23:33N 46°37' E 031°02'0 0.0
2016-May-28 22:34N 46°37' E 031°02'0 0.0
2016-May-28 21:33N 46°37' E 031°02'0 0.0
2016-May-28 20:28N 46°37' E 031°02'0 0.0
2016-May-28 19:34N 46°37' E 031°02'0 0.0
2016-May-28 18:27N 46°37' E 031°02'0 0.0
2016-May-28 17:33N 46°37' E 031°02'0 0.0
2016-May-28 16:33N 46°37' E 031°02'2 2.5
2016-May-28 15:34N 46°35' E 031°02'0 0.4
2016-May-28 14:34N 46°35' E 031°03'0 0.0
2016-May-28 13:33N 46°35' E 031°03'0 0.0
2016-May-28 12:34N 46°35' E 031°03'0 0.0
2016-May-28 11:33N 46°35' E 031°03'0 0.0
2016-May-28 10:33N 46°35' E 031°03'0 0.0
2016-May-28 09:33N 46°35' E 031°03'0 0.0
2016-May-28 08:33N 46°35' E 031°03'0 0.0
2016-May-28 07:33N 46°35' E 031°03'0 0.0
2016-May-28 06:33N 46°35' E 031°03'0 0.0
2016-May-28 05:28N 46°35' E 031°03'0 0.0
2016-May-28 04:33N 46°35' E 031°03'0 0.0
2016-May-28 03:33N 46°35' E 031°03'0 0.0
2016-May-28 02:33N 46°35' E 031°03'0 0.0
2016-May-28 01:33N 46°35' E 031°03'0 0.0
2016-May-28 00:33N 46°35' E 031°03'0 0.0
2016-May-27 23:33N 46°35' E 031°03'0 0.0
2016-May-27 22:33N 46°35' E 031°03'0 0.0
2016-May-27 21:33N 46°35' E 031°03'0 0.0
2016-May-27 20:34N 46°35' E 031°03'0 0.0
2016-May-27 19:34N 46°35' E 031°03'0 0.0
2016-May-27 18:33N 46°35' E 031°03'0 0.0
2016-May-27 17:33N 46°35' E 031°03'0 0.0
2016-May-27 16:33N 46°35' E 031°03'0 0.0
2016-May-27 15:33N 46°35' E 031°03'0 0.0
2016-May-27 14:33N 46°35' E 031°03'0 0.0
2016-May-27 13:33N 46°35' E 031°03'0 0.0
2016-May-27 12:33N 46°35' E 031°03'0 0.0
2016-May-27 11:33N 46°35' E 031°03'0 0.0
2016-May-27 10:33N 46°35' E 031°03'0 0.0
2016-May-27 09:33N 46°35' E 031°03'0 0.0
2016-May-27 08:33N 46°35' E 031°03'0 0.0
2016-May-27 07:33N 46°35' E 031°03'0 0.0
2016-May-27 06:33N 46°35' E 031°03'0 0.0
2016-May-27 05:33N 46°35' E 031°03'0 0.0
2016-May-27 04:33N 46°35' E 031°03'0 0.0
2016-May-27 03:34N 46°35' E 031°03'0 0.0
2016-May-27 02:34N 46°35' E 031°03'0 0.0
2016-May-27 01:34N 46°35' E 031°03'0 0.0
2016-May-27 00:34N 46°35' E 031°03'0 0.0
2016-May-26 23:33N 46°35' E 031°03'0 0.0
2016-May-26 22:33N 46°35' E 031°03'0 0.0
2016-May-26 21:33N 46°35' E 031°03'0 0.0
2016-May-26 20:33N 46°35' E 031°03'0 0.0
2016-May-26 19:33N 46°35' E 031°03'0 0.0
2016-May-26 18:33N 46°35' E 031°03'0 0.0
2016-May-26 17:33N 46°35' E 031°03'0 0.0
2016-May-26 16:33N 46°35' E 031°03'0 0.0
2016-May-26 15:33N 46°35' E 031°03'0 0.0
2016-May-26 14:33N 46°35' E 031°03'0 0.0
2016-May-26 13:33N 46°35' E 031°03'0 0.0
2016-May-26 12:34N 46°35' E 031°03'0 0.0
2016-May-26 11:34N 46°35' E 031°03'0 0.0
2016-May-26 10:34N 46°35' E 031°03'1 0.9
2016-May-26 09:33N 46°34' E 031°02'5 4.7
2016-May-26 08:33N 46°31' E 030°57'5 5.4
2016-May-26 07:33N 46°25' E 030°57'5 5.4
2016-May-26 06:33N 46°20' E 030°57'5 5.5
2016-May-26 05:33N 46°15' E 031°00'4 3.8
2016-May-26 04:33N 46°11' E 030°59'5 5.1
2016-May-26 03:33N 46°07' E 030°54'8 5.4
2016-May-26 02:07N 46°02' E 030°46'  
Track history (hours):
 
Tides and Currents Weather Stations Pressure Air Temp Water Temp Dewpoint Dewpoint Depression Visibility Wind Speed Wind Dir Waves Ship Positions

Svyataya Anna

Last reported at 2016-May-31 15:22 UTC. Time now 2016-May-31 16:04 UTC.
Position N 44°16' E 034°46'.

Length 93 m; draft 3.2 m.

Type: Cargo ship. MMSI: 272068800.

Date/timePositionNaut miles runAvg speedWind from/ knotsBaromVisibWave heightAir tempDewpointWater temp
2016-May-31 15:22N 44°16' E 034°46'3 4.3
2016-May-31 14:33N 44°15' E 034°41'11 5.0
2016-May-31 12:23N 44°16' E 034°26'4 5.1
2016-May-31 11:33N 44°16' E 034°20'6 5.0
2016-May-31 10:26N 44°16' E 034°12'6 4.7
2016-May-31 09:11N 44°16' E 034°04'37 4.7
2016-May-31 01:24N 44°26' E 033°15'4 5.1
2016-May-31 00:33N 44°30' E 033°11'6 4.8
2016-May-30 23:22N 44°34' E 033°05'9 4.8
2016-May-30 21:33N 44°40' E 032°57'6 4.9
2016-May-30 20:25N 44°45' E 032°52'4 5.0
2016-May-30 19:33N 44°48' E 032°48'5 4.9
2016-May-30 18:33N 44°51' E 032°43'5 5.0
2016-May-30 17:33N 44°55' E 032°38'5 4.9
2016-May-30 16:33N 44°58' E 032°34'5 4.9
2016-May-30 15:33N 45°02' E 032°29'80 5.0
2016-May-29 23:32N 46°08' E 031°24'6 5.2
2016-May-29 22:21N 46°14' E 031°20'4 5.2
2016-May-29 21:30N 46°18' E 031°17'5 5.1
2016-May-29 20:32N 46°22' E 031°13'5 5.1
2016-May-29 19:33N 46°26' E 031°09'5 5.0
2016-May-29 18:33N 46°30' E 031°05'5 4.7
2016-May-29 17:33N 46°34' E 031°01'3 3.1
2016-May-29 16:31N 46°37' E 031°02'0 0.0
2016-May-29 15:33N 46°37' E 031°02'0 0.0
2016-May-29 14:30N 46°37' E 031°02'0 0.0
2016-May-29 13:32N 46°37' E 031°02'0 0.0
2016-May-29 12:33N 46°37' E 031°02'0 0.0
2016-May-29 11:32N 46°37' E 031°02'0 0.0
2016-May-29 10:33N 46°37' E 031°02'0 0.0
2016-May-29 09:33N 46°37' E 031°02'0 0.0
2016-May-29 08:33N 46°37' E 031°02'0 0.0
2016-May-29 07:32N 46°37' E 031°02'0 0.0
2016-May-29 05:33N 46°37' E 031°02'0 0.0
2016-May-29 03:34N 46°37' E 031°02'0 0.0
2016-May-29 02:33N 46°37' E 031°02'0 0.0
2016-May-29 01:33N 46°37' E 031°02'0 0.0
2016-May-29 00:33N 46°37' E 031°02'0 0.0
2016-May-28 23:33N 46°37' E 031°02'0 0.0
2016-May-28 22:34N 46°37' E 031°02'0 0.0
2016-May-28 21:33N 46°37' E 031°02'0 0.0
2016-May-28 20:28N 46°37' E 031°02'0 0.0
2016-May-28 19:34N 46°37' E 031°02'0 0.0
2016-May-28 18:27N 46°37' E 031°02'0 0.0
2016-May-28 17:33N 46°37' E 031°02'0 0.0
2016-May-28 16:33N 46°37' E 031°02'2 2.5
2016-May-28 15:34N 46°35' E 031°02'0 0.4
2016-May-28 14:34N 46°35' E 031°03'0 0.0
2016-May-28 13:33N 46°35' E 031°03'0 0.0
2016-May-28 12:34N 46°35' E 031°03'0 0.0
2016-May-28 11:33N 46°35' E 031°03'0 0.0
2016-May-28 10:33N 46°35' E 031°03'0 0.0
2016-May-28 09:33N 46°35' E 031°03'0 0.0
2016-May-28 08:33N 46°35' E 031°03'0 0.0
2016-May-28 07:33N 46°35' E 031°03'0 0.0
2016-May-28 06:33N 46°35' E 031°03'0 0.0
2016-May-28 05:28N 46°35' E 031°03'0 0.0
2016-May-28 04:33N 46°35' E 031°03'0 0.0
2016-May-28 03:33N 46°35' E 031°03'0 0.0
2016-May-28 02:33N 46°35' E 031°03'0 0.0
2016-May-28 01:33N 46°35' E 031°03'0 0.0
2016-May-28 00:33N 46°35' E 031°03'0 0.0
2016-May-27 23:33N 46°35' E 031°03'0 0.0
2016-May-27 22:33N 46°35' E 031°03'0 0.0
2016-May-27 21:33N 46°35' E 031°03'0 0.0
2016-May-27 20:34N 46°35' E 031°03'0 0.0
2016-May-27 19:34N 46°35' E 031°03'0 0.0
2016-May-27 18:33N 46°35' E 031°03'0 0.0
2016-May-27 17:33N 46°35' E 031°03'0 0.0
2016-May-27 16:33N 46°35' E 031°03'0 0.0
2016-May-27 15:33N 46°35' E 031°03'0 0.0
2016-May-27 14:33N 46°35' E 031°03'0 0.0
2016-May-27 13:33N 46°35' E 031°03'0 0.0
2016-May-27 12:33N 46°35' E 031°03'0 0.0
2016-May-27 11:33N 46°35' E 031°03'0 0.0
2016-May-27 10:33N 46°35' E 031°03'0 0.0
2016-May-27 09:33N 46°35' E 031°03'0 0.0
2016-May-27 08:33N 46°35' E 031°03'0 0.0
2016-May-27 07:33N 46°35' E 031°03'0 0.0
2016-May-27 06:33N 46°35' E 031°03'0 0.0
2016-May-27 05:33N 46°35' E 031°03'0 0.0
2016-May-27 04:33N 46°35' E 031°03'0 0.0
2016-May-27 03:34N 46°35' E 031°03'0 0.0
2016-May-27 02:34N 46°35' E 031°03'0 0.0
2016-May-27 01:34N 46°35' E 031°03'0 0.0
2016-May-27 00:34N 46°35' E 031°03'0 0.0
2016-May-26 23:33N 46°35' E 031°03'0 0.0
2016-May-26 22:33N 46°35' E 031°03'0 0.0
2016-May-26 21:33N 46°35' E 031°03'0 0.0
2016-May-26 20:33N 46°35' E 031°03'0 0.0
2016-May-26 19:33N 46°35' E 031°03'0 0.0
2016-May-26 18:33N 46°35' E 031°03'0 0.0
2016-May-26 17:33N 46°35' E 031°03'0 0.0
2016-May-26 16:33N 46°35' E 031°03'0 0.0
2016-May-26 15:33N 46°35' E 031°03'0 0.0
2016-May-26 14:33N 46°35' E 031°03'0 0.0
2016-May-26 13:33N 46°35' E 031°03'0 0.0
2016-May-26 12:34N 46°35' E 031°03'0 0.0
2016-May-26 11:34N 46°35' E 031°03'0 0.0
2016-May-26 10:34N 46°35' E 031°03'1 0.9
2016-May-26 09:33N 46°34' E 031°02'5 4.7
2016-May-26 08:33N 46°31' E 030°57'5 5.4
2016-May-26 07:33N 46°25' E 030°57'5 5.4
2016-May-26 06:33N 46°20' E 030°57'5 5.5
2016-May-26 05:33N 46°15' E 031°00'4 3.8
2016-May-26 04:33N 46°11' E 030°59'5 5.1
2016-May-26 03:33N 46°07' E 030°54'8 5.4
2016-May-26 02:07N 46°02' E 030°46'  

Dump ship's entire track history